sensor_id;sensor_type;location;lat;lon;timestamp;P1;durP1;ratioP1;P2;durP2;ratioP2
45784;SDS011;31489;51.404;5.474;2023-12-07T00:00:39;16.45;;;11.35;;
45784;SDS011;31489;51.404;5.474;2023-12-07T00:03:05;14.10;;;11.38;;
45784;SDS011;31489;51.404;5.474;2023-12-07T00:05:33;12.77;;;9.65;;
45784;SDS011;31489;51.404;5.474;2023-12-07T00:07:59;12.95;;;10.80;;
45784;SDS011;31489;51.404;5.474;2023-12-07T00:10:25;15.45;;;10.48;;
45784;SDS011;31489;51.404;5.474;2023-12-07T00:12:50;13.07;;;10.48;;
45784;SDS011;31489;51.404;5.474;2023-12-07T00:15:16;12.55;;;10.00;;
45784;SDS011;31489;51.404;5.474;2023-12-07T00:17:42;16.55;;;11.90;;
45784;SDS011;31489;51.404;5.474;2023-12-07T00:20:07;16.20;;;11.95;;
45784;SDS011;31489;51.404;5.474;2023-12-07T00:22:33;18.02;;;12.20;;
45784;SDS011;31489;51.404;5.474;2023-12-07T00:24:59;17.95;;;11.68;;
45784;SDS011;31489;51.404;5.474;2023-12-07T00:27:25;15.82;;;11.32;;
45784;SDS011;31489;51.404;5.474;2023-12-07T00:29:50;16.70;;;11.40;;
45784;SDS011;31489;51.404;5.474;2023-12-07T00:32:16;14.52;;;11.82;;
45784;SDS011;31489;51.404;5.474;2023-12-07T00:34:42;14.15;;;11.75;;
45784;SDS011;31489;51.404;5.474;2023-12-07T00:37:08;14.00;;;10.25;;
45784;SDS011;31489;51.404;5.474;2023-12-07T00:39:34;12.43;;;10.35;;
45784;SDS011;31489;51.404;5.474;2023-12-07T00:42:01;13.82;;;11.10;;
45784;SDS011;31489;51.404;5.474;2023-12-07T00:44:26;19.25;;;11.45;;
45784;SDS011;31489;51.404;5.474;2023-12-07T00:46:52;17.35;;;12.43;;
45784;SDS011;31489;51.404;5.474;2023-12-07T00:49:18;21.15;;;13.80;;
45784;SDS011;31489;51.404;5.474;2023-12-07T00:51:44;23.35;;;14.20;;
45784;SDS011;31489;51.404;5.474;2023-12-07T00:54:09;22.48;;;13.45;;
45784;SDS011;31489;51.404;5.474;2023-12-07T00:56:35;38.25;;;20.38;;
45784;SDS011;31489;51.404;5.474;2023-12-07T00:59:02;30.58;;;18.80;;
45784;SDS011;31489;51.404;5.474;2023-12-07T01:01:28;27.27;;;16.98;;
45784;SDS011;31489;51.404;5.474;2023-12-07T01:03:53;38.05;;;22.17;;
45784;SDS011;31489;51.404;5.474;2023-12-07T01:06:19;26.67;;;17.92;;
45784;SDS011;31489;51.404;5.474;2023-12-07T01:08:45;27.58;;;16.95;;
45784;SDS011;31489;51.404;5.474;2023-12-07T01:11:11;24.67;;;16.27;;
45784;SDS011;31489;51.404;5.474;2023-12-07T01:13:36;22.95;;;15.15;;
45784;SDS011;31489;51.404;5.474;2023-12-07T01:16:02;22.48;;;15.25;;
45784;SDS011;31489;51.404;5.474;2023-12-07T01:18:28;21.45;;;14.27;;
45784;SDS011;31489;51.404;5.474;2023-12-07T01:20:54;20.05;;;14.02;;
45784;SDS011;31489;51.404;5.474;2023-12-07T01:23:19;23.50;;;13.57;;
45784;SDS011;31489;51.404;5.474;2023-12-07T01:25:45;17.73;;;12.43;;
45784;SDS011;31489;51.404;5.474;2023-12-07T01:28:11;17.50;;;12.75;;
45784;SDS011;31489;51.404;5.474;2023-12-07T01:30:37;18.10;;;12.27;;
45784;SDS011;31489;51.404;5.474;2023-12-07T01:33:03;15.30;;;11.90;;
45784;SDS011;31489;51.404;5.474;2023-12-07T01:35:29;16.55;;;11.68;;
45784;SDS011;31489;51.404;5.474;2023-12-07T01:37:54;21.73;;;13.02;;
45784;SDS011;31489;51.404;5.474;2023-12-07T01:40:20;20.63;;;12.85;;
45784;SDS011;31489;51.404;5.474;2023-12-07T01:42:49;32.42;;;13.75;;
45784;SDS011;31489;51.404;5.474;2023-12-07T01:45:16;112.30;;;14.40;;
45784;SDS011;31489;51.404;5.474;2023-12-07T01:47:42;60.08;;;15.48;;
45784;SDS011;31489;51.404;5.474;2023-12-07T01:50:08;72.38;;;14.00;;
45784;SDS011;31489;51.404;5.474;2023-12-07T01:52:39;40.08;;;14.07;;
45784;SDS011;31489;51.404;5.474;2023-12-07T01:55:11;59.85;;;14.95;;
45784;SDS011;31489;51.404;5.474;2023-12-07T01:57:38;64.25;;;15.30;;
45784;SDS011;31489;51.404;5.474;2023-12-07T02:00:03;59.08;;;16.15;;
45784;SDS011;31489;51.404;5.474;2023-12-07T02:02:30;55.78;;;15.05;;
45784;SDS011;31489;51.404;5.474;2023-12-07T02:04:57;76.30;;;15.57;;
45784;SDS011;31489;51.404;5.474;2023-12-07T02:07:23;63.50;;;13.68;;
45784;SDS011;31489;51.404;5.474;2023-12-07T02:09:49;62.20;;;15.77;;
45784;SDS011;31489;51.404;5.474;2023-12-07T02:12:15;51.33;;;14.65;;
45784;SDS011;31489;51.404;5.474;2023-12-07T02:14:41;60.42;;;15.52;;
45784;SDS011;31489;51.404;5.474;2023-12-07T02:20:04;120.13;;;17.35;;
45784;SDS011;31489;51.404;5.474;2023-12-07T02:22:42;44.80;;;14.63;;
45784;SDS011;31489;51.404;5.474;2023-12-07T02:25:18;77.43;;;16.92;;
45784;SDS011;31489;51.404;5.474;2023-12-07T02:27:46;71.40;;;16.95;;
45784;SDS011;31489;51.404;5.474;2023-12-07T02:30:12;63.88;;;16.30;;
45784;SDS011;31489;51.404;5.474;2023-12-07T02:32:38;59.63;;;16.40;;
45784;SDS011;31489;51.404;5.474;2023-12-07T02:35:06;83.32;;;15.95;;
45784;SDS011;31489;51.404;5.474;2023-12-07T02:37:35;64.25;;;15.68;;
45784;SDS011;31489;51.404;5.474;2023-12-07T02:40:14;67.18;;;15.70;;
45784;SDS011;31489;51.404;5.474;2023-12-07T02:42:45;49.22;;;16.00;;
45784;SDS011;31489;51.404;5.474;2023-12-07T02:45:12;82.07;;;16.58;;
45784;SDS011;31489;51.404;5.474;2023-12-07T02:47:38;70.90;;;16.35;;
45784;SDS011;31489;51.404;5.474;2023-12-07T02:50:04;68.35;;;14.52;;
45784;SDS011;31489;51.404;5.474;2023-12-07T02:52:31;51.17;;;15.07;;
45784;SDS011;31489;51.404;5.474;2023-12-07T02:54:57;59.80;;;16.00;;
45784;SDS011;31489;51.404;5.474;2023-12-07T02:57:22;110.65;;;16.60;;
45784;SDS011;31489;51.404;5.474;2023-12-07T02:59:48;64.32;;;16.48;;
45784;SDS011;31489;51.404;5.474;2023-12-07T03:02:13;64.20;;;16.02;;
45784;SDS011;31489;51.404;5.474;2023-12-07T03:04:39;31.73;;;15.27;;
45784;SDS011;31489;51.404;5.474;2023-12-07T03:07:05;47.05;;;14.82;;
45784;SDS011;31489;51.404;5.474;2023-12-07T03:09:30;36.17;;;15.85;;
45784;SDS011;31489;51.404;5.474;2023-12-07T03:11:56;29.52;;;14.90;;
45784;SDS011;31489;51.404;5.474;2023-12-07T03:14:22;50.78;;;14.98;;
45784;SDS011;31489;51.404;5.474;2023-12-07T03:16:47;73.85;;;15.85;;
45784;SDS011;31489;51.404;5.474;2023-12-07T03:19:13;58.58;;;14.55;;
45784;SDS011;31489;51.404;5.474;2023-12-07T03:21:39;51.70;;;14.95;;
45784;SDS011;31489;51.404;5.474;2023-12-07T03:24:08;46.85;;;15.65;;
45784;SDS011;31489;51.404;5.474;2023-12-07T03:26:35;46.40;;;14.73;;
45784;SDS011;31489;51.404;5.474;2023-12-07T03:29:00;48.67;;;13.75;;
45784;SDS011;31489;51.404;5.474;2023-12-07T03:31:27;62.35;;;13.75;;
45784;SDS011;31489;51.404;5.474;2023-12-07T03:33:53;58.60;;;12.80;;
45784;SDS011;31489;51.404;5.474;2023-12-07T03:36:19;103.25;;;14.90;;
45784;SDS011;31489;51.404;5.474;2023-12-07T03:38:45;87.80;;;12.57;;
45784;SDS011;31489;51.404;5.474;2023-12-07T03:41:11;33.22;;;11.63;;
45784;SDS011;31489;51.404;5.474;2023-12-07T03:43:36;54.97;;;12.70;;
45784;SDS011;31489;51.404;5.474;2023-12-07T03:46:05;96.65;;;13.70;;
45784;SDS011;31489;51.404;5.474;2023-12-07T03:48:32;63.42;;;11.60;;
45784;SDS011;31489;51.404;5.474;2023-12-07T03:50:59;59.50;;;10.75;;
45784;SDS011;31489;51.404;5.474;2023-12-07T03:53:25;55.17;;;11.98;;
45784;SDS011;31489;51.404;5.474;2023-12-07T03:55:50;45.72;;;11.52;;
45784;SDS011;31489;51.404;5.474;2023-12-07T03:58:17;66.38;;;11.55;;
45784;SDS011;31489;51.404;5.474;2023-12-07T04:00:43;40.13;;;12.00;;
45784;SDS011;31489;51.404;5.474;2023-12-07T04:03:10;99.35;;;12.60;;
45784;SDS011;31489;51.404;5.474;2023-12-07T04:05:35;65.80;;;11.43;;
45784;SDS011;31489;51.404;5.474;2023-12-07T04:08:01;45.25;;;10.68;;
45784;SDS011;31489;51.404;5.474;2023-12-07T04:10:27;55.35;;;10.60;;
45784;SDS011;31489;51.404;5.474;2023-12-07T04:12:52;34.33;;;11.23;;
45784;SDS011;31489;51.404;5.474;2023-12-07T04:15:18;24.92;;;9.45;;
45784;SDS011;31489;51.404;5.474;2023-12-07T04:17:45;23.35;;;9.30;;
45784;SDS011;31489;51.404;5.474;2023-12-07T04:20:11;36.65;;;9.40;;
45784;SDS011;31489;51.404;5.474;2023-12-07T04:22:38;39.95;;;9.60;;
45784;SDS011;31489;51.404;5.474;2023-12-07T04:25:04;17.27;;;9.13;;
45784;SDS011;31489;51.404;5.474;2023-12-07T04:27:30;31.92;;;9.57;;
45784;SDS011;31489;51.404;5.474;2023-12-07T04:29:56;17.33;;;8.85;;
45784;SDS011;31489;51.404;5.474;2023-12-07T04:32:22;22.95;;;10.05;;
45784;SDS011;31489;51.404;5.474;2023-12-07T04:34:48;20.88;;;10.43;;
45784;SDS011;31489;51.404;5.474;2023-12-07T04:37:14;25.70;;;10.60;;
45784;SDS011;31489;51.404;5.474;2023-12-07T04:39:40;48.08;;;11.00;;
45784;SDS011;31489;51.404;5.474;2023-12-07T04:42:06;22.95;;;9.65;;
45784;SDS011;31489;51.404;5.474;2023-12-07T04:44:32;39.03;;;10.82;;
45784;SDS011;31489;51.404;5.474;2023-12-07T04:46:58;31.52;;;10.48;;
45784;SDS011;31489;51.404;5.474;2023-12-07T04:49:23;27.08;;;9.93;;
45784;SDS011;31489;51.404;5.474;2023-12-07T04:51:49;65.80;;;11.02;;
45784;SDS011;31489;51.404;5.474;2023-12-07T04:54:15;21.45;;;9.90;;
45784;SDS011;31489;51.404;5.474;2023-12-07T04:56:41;34.60;;;10.73;;
45784;SDS011;31489;51.404;5.474;2023-12-07T04:59:07;19.80;;;10.18;;
45784;SDS011;31489;51.404;5.474;2023-12-07T05:01:35;25.52;;;10.70;;
45784;SDS011;31489;51.404;5.474;2023-12-07T05:04:01;70.72;;;11.10;;
45784;SDS011;31489;51.404;5.474;2023-12-07T05:06:28;32.35;;;10.93;;
45784;SDS011;31489;51.404;5.474;2023-12-07T05:08:54;55.70;;;10.75;;
45784;SDS011;31489;51.404;5.474;2023-12-07T05:11:20;51.70;;;11.68;;
45784;SDS011;31489;51.404;5.474;2023-12-07T05:13:46;36.03;;;11.70;;
45784;SDS011;31489;51.404;5.474;2023-12-07T05:16:13;57.63;;;12.32;;
45784;SDS011;31489;51.404;5.474;2023-12-07T05:18:38;25.23;;;10.95;;
45784;SDS011;31489;51.404;5.474;2023-12-07T05:21:04;71.07;;;11.35;;
45784;SDS011;31489;51.404;5.474;2023-12-07T05:23:30;34.45;;;9.93;;
45784;SDS011;31489;51.404;5.474;2023-12-07T05:25:56;30.05;;;10.55;;
45784;SDS011;31489;51.404;5.474;2023-12-07T05:28:21;25.10;;;10.32;;
45784;SDS011;31489;51.404;5.474;2023-12-07T05:30:47;73.00;;;12.88;;
45784;SDS011;31489;51.404;5.474;2023-12-07T05:33:13;43.80;;;10.68;;
45784;SDS011;31489;51.404;5.474;2023-12-07T05:35:39;47.83;;;11.65;;
45784;SDS011;31489;51.404;5.474;2023-12-07T05:38:05;38.25;;;10.55;;
45784;SDS011;31489;51.404;5.474;2023-12-07T05:40:30;37.47;;;11.68;;
45784;SDS011;31489;51.404;5.474;2023-12-07T05:42:57;33.80;;;11.60;;
45784;SDS011;31489;51.404;5.474;2023-12-07T05:45:22;33.55;;;11.43;;
45784;SDS011;31489;51.404;5.474;2023-12-07T05:47:48;40.30;;;10.43;;
45784;SDS011;31489;51.404;5.474;2023-12-07T05:50:13;46.50;;;11.30;;
45784;SDS011;31489;51.404;5.474;2023-12-07T05:52:39;33.90;;;10.20;;
45784;SDS011;31489;51.404;5.474;2023-12-07T05:55:05;62.67;;;27.17;;
45784;SDS011;31489;51.404;5.474;2023-12-07T05:57:31;36.63;;;14.85;;
45784;SDS011;31489;51.404;5.474;2023-12-07T05:59:56;29.25;;;11.65;;
45784;SDS011;31489;51.404;5.474;2023-12-07T06:02:22;32.17;;;11.20;;
45784;SDS011;31489;51.404;5.474;2023-12-07T06:04:47;52.55;;;11.02;;
45784;SDS011;31489;51.404;5.474;2023-12-07T06:07:13;33.22;;;10.30;;
45784;SDS011;31489;51.404;5.474;2023-12-07T06:09:39;24.35;;;9.93;;
45784;SDS011;31489;51.404;5.474;2023-12-07T06:12:06;28.95;;;9.45;;
45784;SDS011;31489;51.404;5.474;2023-12-07T06:14:32;21.05;;;10.55;;
45784;SDS011;31489;51.404;5.474;2023-12-07T06:16:57;23.90;;;10.15;;
45784;SDS011;31489;51.404;5.474;2023-12-07T06:19:24;27.27;;;9.75;;
45784;SDS011;31489;51.404;5.474;2023-12-07T06:21:50;41.03;;;11.43;;
45784;SDS011;31489;51.404;5.474;2023-12-07T06:24:15;59.33;;;12.13;;
45784;SDS011;31489;51.404;5.474;2023-12-07T06:26:41;29.35;;;11.70;;
45784;SDS011;31489;51.404;5.474;2023-12-07T06:29:06;23.30;;;10.77;;
45784;SDS011;31489;51.404;5.474;2023-12-07T06:31:32;19.40;;;10.35;;
45784;SDS011;31489;51.404;5.474;2023-12-07T06:33:58;21.55;;;10.38;;
45784;SDS011;31489;51.404;5.474;2023-12-07T06:36:25;28.15;;;11.40;;
45784;SDS011;31489;51.404;5.474;2023-12-07T06:38:51;24.85;;;11.63;;
45784;SDS011;31489;51.404;5.474;2023-12-07T06:41:17;25.58;;;12.80;;
45784;SDS011;31489;51.404;5.474;2023-12-07T06:43:43;27.63;;;12.02;;
45784;SDS011;31489;51.404;5.474;2023-12-07T06:46:12;38.30;;;13.23;;
45784;SDS011;31489;51.404;5.474;2023-12-07T06:48:39;30.08;;;11.80;;
45784;SDS011;31489;51.404;5.474;2023-12-07T06:51:05;16.05;;;11.00;;
45784;SDS011;31489;51.404;5.474;2023-12-07T06:53:31;26.38;;;13.93;;
45784;SDS011;31489;51.404;5.474;2023-12-07T06:55:57;20.90;;;12.70;;
45784;SDS011;31489;51.404;5.474;2023-12-07T06:58:22;21.98;;;12.00;;
45784;SDS011;31489;51.404;5.474;2023-12-07T07:00:48;38.85;;;13.05;;
45784;SDS011;31489;51.404;5.474;2023-12-07T07:03:15;23.52;;;13.00;;
45784;SDS011;31489;51.404;5.474;2023-12-07T07:05:41;36.55;;;14.05;;
45784;SDS011;31489;51.404;5.474;2023-12-07T07:08:07;24.05;;;12.98;;
45784;SDS011;31489;51.404;5.474;2023-12-07T07:10:33;24.27;;;12.75;;
45784;SDS011;31489;51.404;5.474;2023-12-07T07:13:00;25.98;;;12.32;;
45784;SDS011;31489;51.404;5.474;2023-12-07T07:15:29;19.92;;;12.95;;
45784;SDS011;31489;51.404;5.474;2023-12-07T07:17:57;23.70;;;13.13;;
45784;SDS011;31489;51.404;5.474;2023-12-07T07:20:23;28.27;;;14.15;;
45784;SDS011;31489;51.404;5.474;2023-12-07T07:22:49;22.98;;;14.10;;
45784;SDS011;31489;51.404;5.474;2023-12-07T07:25:15;26.90;;;13.85;;
45784;SDS011;31489;51.404;5.474;2023-12-07T07:27:41;18.98;;;12.50;;
45784;SDS011;31489;51.404;5.474;2023-12-07T07:30:07;22.83;;;12.57;;
45784;SDS011;31489;51.404;5.474;2023-12-07T07:32:33;18.08;;;13.05;;
45784;SDS011;31489;51.404;5.474;2023-12-07T07:34:59;19.63;;;13.52;;
45784;SDS011;31489;51.404;5.474;2023-12-07T07:37:25;21.48;;;13.48;;
45784;SDS011;31489;51.404;5.474;2023-12-07T07:39:51;17.90;;;12.13;;
45784;SDS011;31489;51.404;5.474;2023-12-07T07:42:16;19.77;;;12.60;;
45784;SDS011;31489;51.404;5.474;2023-12-07T07:44:42;17.77;;;12.10;;
45784;SDS011;31489;51.404;5.474;2023-12-07T07:47:08;15.65;;;11.70;;
45784;SDS011;31489;51.404;5.474;2023-12-07T07:49:33;14.93;;;10.82;;
45784;SDS011;31489;51.404;5.474;2023-12-07T07:51:59;15.90;;;11.05;;
45784;SDS011;31489;51.404;5.474;2023-12-07T07:54:24;14.93;;;10.93;;
45784;SDS011;31489;51.404;5.474;2023-12-07T07:56:51;15.45;;;10.63;;
45784;SDS011;31489;51.404;5.474;2023-12-07T07:59:16;17.45;;;11.18;;
45784;SDS011;31489;51.404;5.474;2023-12-07T08:01:42;15.25;;;11.02;;
45784;SDS011;31489;51.404;5.474;2023-12-07T08:04:08;16.52;;;11.63;;
45784;SDS011;31489;51.404;5.474;2023-12-07T08:06:35;15.55;;;10.68;;
45784;SDS011;31489;51.404;5.474;2023-12-07T08:09:00;18.00;;;12.18;;
45784;SDS011;31489;51.404;5.474;2023-12-07T08:11:26;17.15;;;12.25;;
45784;SDS011;31489;51.404;5.474;2023-12-07T08:13:52;25.52;;;13.20;;
45784;SDS011;31489;51.404;5.474;2023-12-07T08:16:17;19.80;;;12.98;;
45784;SDS011;31489;51.404;5.474;2023-12-07T08:18:44;20.95;;;12.65;;
45784;SDS011;31489;51.404;5.474;2023-12-07T08:21:17;20.35;;;13.55;;
45784;SDS011;31489;51.404;5.474;2023-12-07T08:23:45;21.77;;;13.55;;
45784;SDS011;31489;51.404;5.474;2023-12-07T08:26:10;23.38;;;13.85;;
45784;SDS011;31489;51.404;5.474;2023-12-07T08:28:39;22.48;;;14.55;;
45784;SDS011;31489;51.404;5.474;2023-12-07T08:31:05;23.83;;;14.00;;
45784;SDS011;31489;51.404;5.474;2023-12-07T08:33:31;20.92;;;13.70;;
45784;SDS011;31489;51.404;5.474;2023-12-07T08:35:59;25.33;;;14.75;;
45784;SDS011;31489;51.404;5.474;2023-12-07T08:38:25;25.63;;;15.90;;
45784;SDS011;31489;51.404;5.474;2023-12-07T08:40:50;22.65;;;15.40;;
45784;SDS011;31489;51.404;5.474;2023-12-07T08:43:16;24.38;;;15.02;;
45784;SDS011;31489;51.404;5.474;2023-12-07T08:45:44;22.50;;;14.80;;
45784;SDS011;31489;51.404;5.474;2023-12-07T08:48:11;24.55;;;15.30;;
45784;SDS011;31489;51.404;5.474;2023-12-07T08:50:36;22.63;;;14.65;;
45784;SDS011;31489;51.404;5.474;2023-12-07T08:53:02;24.33;;;15.45;;
45784;SDS011;31489;51.404;5.474;2023-12-07T08:55:28;23.17;;;15.45;;
45784;SDS011;31489;51.404;5.474;2023-12-07T08:57:54;24.10;;;15.20;;
45784;SDS011;31489;51.404;5.474;2023-12-07T09:00:20;23.55;;;13.88;;
45784;SDS011;31489;51.404;5.474;2023-12-07T09:02:49;22.27;;;14.18;;
45784;SDS011;31489;51.404;5.474;2023-12-07T09:05:15;24.25;;;15.52;;
45784;SDS011;31489;51.404;5.474;2023-12-07T09:07:40;23.63;;;15.52;;
45784;SDS011;31489;51.404;5.474;2023-12-07T09:10:07;24.90;;;15.43;;
45784;SDS011;31489;51.404;5.474;2023-12-07T09:12:33;20.88;;;14.38;;
45784;SDS011;31489;51.404;5.474;2023-12-07T09:15:00;23.90;;;16.08;;
45784;SDS011;31489;51.404;5.474;2023-12-07T09:17:27;23.13;;;15.82;;
45784;SDS011;31489;51.404;5.474;2023-12-07T09:19:53;22.40;;;14.50;;
45784;SDS011;31489;51.404;5.474;2023-12-07T09:22:19;23.80;;;15.23;;
45784;SDS011;31489;51.404;5.474;2023-12-07T09:24:45;20.73;;;14.60;;
45784;SDS011;31489;51.404;5.474;2023-12-07T09:27:11;20.17;;;14.02;;
45784;SDS011;31489;51.404;5.474;2023-12-07T09:29:40;20.27;;;13.68;;
45784;SDS011;31489;51.404;5.474;2023-12-07T09:32:06;21.60;;;14.57;;
45784;SDS011;31489;51.404;5.474;2023-12-07T09:34:32;18.92;;;13.57;;
45784;SDS011;31489;51.404;5.474;2023-12-07T09:37:08;23.20;;;14.13;;
45784;SDS011;31489;51.404;5.474;2023-12-07T09:39:34;20.80;;;14.52;;
45784;SDS011;31489;51.404;5.474;2023-12-07T09:42:01;18.67;;;12.95;;
45784;SDS011;31489;51.404;5.474;2023-12-07T09:44:27;15.95;;;12.18;;
45784;SDS011;31489;51.404;5.474;2023-12-07T09:46:53;20.33;;;13.05;;
45784;SDS011;31489;51.404;5.474;2023-12-07T09:49:19;17.65;;;12.65;;
45784;SDS011;31489;51.404;5.474;2023-12-07T09:51:48;19.25;;;12.95;;
45784;SDS011;31489;51.404;5.474;2023-12-07T09:54:15;16.52;;;12.40;;
45784;SDS011;31489;51.404;5.474;2023-12-07T09:56:42;15.95;;;11.43;;
45784;SDS011;31489;51.404;5.474;2023-12-07T09:59:08;15.73;;;11.73;;
45784;SDS011;31489;51.404;5.474;2023-12-07T10:01:34;15.52;;;11.98;;
45784;SDS011;31489;51.404;5.474;2023-12-07T10:06:45;13.45;;;9.80;;
45784;SDS011;31489;51.404;5.474;2023-12-07T10:09:11;11.50;;;9.40;;
45784;SDS011;31489;51.404;5.474;2023-12-07T10:11:37;13.50;;;10.57;;
45784;SDS011;31489;51.404;5.474;2023-12-07T10:14:05;14.15;;;9.07;;
45784;SDS011;31489;51.404;5.474;2023-12-07T10:16:34;12.27;;;9.77;;
45784;SDS011;31489;51.404;5.474;2023-12-07T10:19:13;10.00;;;9.00;;
45784;SDS011;31489;51.404;5.474;2023-12-07T10:21:42;9.63;;;8.60;;
45784;SDS011;31489;51.404;5.474;2023-12-07T10:24:08;11.90;;;8.50;;
45784;SDS011;31489;51.404;5.474;2023-12-07T10:26:34;13.45;;;8.63;;
45784;SDS011;31489;51.404;5.474;2023-12-07T10:29:02;9.52;;;8.20;;
45784;SDS011;31489;51.404;5.474;2023-12-07T10:31:30;10.18;;;8.50;;
45784;SDS011;31489;51.404;5.474;2023-12-07T10:33:57;10.30;;;8.23;;
45784;SDS011;31489;51.404;5.474;2023-12-07T10:36:25;9.48;;;8.13;;
45784;SDS011;31489;51.404;5.474;2023-12-07T10:38:51;9.07;;;7.97;;
45784;SDS011;31489;51.404;5.474;2023-12-07T10:41:18;10.52;;;8.27;;
45784;SDS011;31489;51.404;5.474;2023-12-07T10:43:49;8.57;;;7.30;;
45784;SDS011;31489;51.404;5.474;2023-12-07T10:46:22;10.57;;;7.85;;
45784;SDS011;31489;51.404;5.474;2023-12-07T10:48:48;8.05;;;7.22;;
45784;SDS011;31489;51.404;5.474;2023-12-07T10:51:37;8.18;;;7.38;;
45784;SDS011;31489;51.404;5.474;2023-12-07T10:54:07;9.30;;;7.32;;
45784;SDS011;31489;51.404;5.474;2023-12-07T10:56:40;7.90;;;7.07;;
45784;SDS011;31489;51.404;5.474;2023-12-07T10:59:09;7.68;;;6.80;;
45784;SDS011;31489;51.404;5.474;2023-12-07T11:01:39;7.93;;;7.13;;
45784;SDS011;31489;51.404;5.474;2023-12-07T11:04:07;7.93;;;7.00;;
45784;SDS011;31489;51.404;5.474;2023-12-07T11:06:38;7.88;;;7.07;;
45784;SDS011;31489;51.404;5.474;2023-12-07T11:09:13;8.45;;;6.95;;
45784;SDS011;31489;51.404;5.474;2023-12-07T11:11:56;7.65;;;6.88;;
45784;SDS011;31489;51.404;5.474;2023-12-07T11:14:28;8.52;;;6.85;;
45784;SDS011;31489;51.404;5.474;2023-12-07T11:16:54;10.25;;;7.90;;
45784;SDS011;31489;51.404;5.474;2023-12-07T11:22:01;10.00;;;7.03;;
45784;SDS011;31489;51.404;5.474;2023-12-07T11:24:28;9.43;;;7.07;;
45784;SDS011;31489;51.404;5.474;2023-12-07T11:26:54;8.02;;;7.00;;
45784;SDS011;31489;51.404;5.474;2023-12-07T11:29:29;7.88;;;6.72;;
45784;SDS011;31489;51.404;5.474;2023-12-07T11:37:03;8.43;;;7.25;;
45784;SDS011;31489;51.404;5.474;2023-12-07T11:39:37;8.52;;;7.45;;
45784;SDS011;31489;51.404;5.474;2023-12-07T11:42:11;10.68;;;8.07;;
45784;SDS011;31489;51.404;5.474;2023-12-07T11:44:45;11.15;;;7.95;;
45784;SDS011;31489;51.404;5.474;2023-12-07T11:47:17;10.50;;;7.80;;
45784;SDS011;31489;51.404;5.474;2023-12-07T11:49:44;7.93;;;7.10;;
45784;SDS011;31489;51.404;5.474;2023-12-07T11:52:18;9.02;;;8.07;;
45784;SDS011;31489;51.404;5.474;2023-12-07T11:54:48;10.48;;;7.90;;
45784;SDS011;31489;51.404;5.474;2023-12-07T11:57:15;11.25;;;7.95;;
45784;SDS011;31489;51.404;5.474;2023-12-07T11:59:41;8.73;;;7.82;;
45784;SDS011;31489;51.404;5.474;2023-12-07T12:02:10;11.43;;;7.68;;
45784;SDS011;31489;51.404;5.474;2023-12-07T12:04:36;10.68;;;7.57;;
45784;SDS011;31489;51.404;5.474;2023-12-07T12:07:03;9.50;;;7.60;;
45784;SDS011;31489;51.404;5.474;2023-12-07T12:09:29;8.15;;;7.35;;
45784;SDS011;31489;51.404;5.474;2023-12-07T12:11:54;8.65;;;7.70;;
45784;SDS011;31489;51.404;5.474;2023-12-07T12:14:25;10.35;;;7.50;;
45784;SDS011;31489;51.404;5.474;2023-12-07T12:16:51;8.45;;;7.57;;
45784;SDS011;31489;51.404;5.474;2023-12-07T12:19:17;10.60;;;7.70;;
45784;SDS011;31489;51.404;5.474;2023-12-07T12:21:43;9.48;;;7.40;;
45784;SDS011;31489;51.404;5.474;2023-12-07T12:24:09;8.98;;;7.70;;
45784;SDS011;31489;51.404;5.474;2023-12-07T12:26:37;8.75;;;7.60;;
45784;SDS011;31489;51.404;5.474;2023-12-07T12:29:08;9.75;;;7.80;;
45784;SDS011;31489;51.404;5.474;2023-12-07T12:31:34;12.80;;;7.63;;
45784;SDS011;31489;51.404;5.474;2023-12-07T12:34:00;10.43;;;7.57;;
45784;SDS011;31489;51.404;5.474;2023-12-07T12:36:27;10.23;;;8.07;;
45784;SDS011;31489;51.404;5.474;2023-12-07T12:38:53;9.85;;;8.30;;
45784;SDS011;31489;51.404;5.474;2023-12-07T12:41:21;11.38;;;8.35;;
45784;SDS011;31489;51.404;5.474;2023-12-07T12:43:47;10.57;;;7.97;;
45784;SDS011;31489;51.404;5.474;2023-12-07T12:46:13;9.35;;;7.88;;
45784;SDS011;31489;51.404;5.474;2023-12-07T12:48:53;9.35;;;7.68;;
45784;SDS011;31489;51.404;5.474;2023-12-07T12:51:25;10.25;;;7.70;;
45784;SDS011;31489;51.404;5.474;2023-12-07T12:53:58;11.65;;;8.38;;
45784;SDS011;31489;51.404;5.474;2023-12-07T12:56:24;9.38;;;7.78;;
45784;SDS011;31489;51.404;5.474;2023-12-07T12:58:53;11.20;;;8.43;;
45784;SDS011;31489;51.404;5.474;2023-12-07T13:01:22;9.15;;;7.22;;
45784;SDS011;31489;51.404;5.474;2023-12-07T13:03:48;10.15;;;8.02;;
45784;SDS011;31489;51.404;5.474;2023-12-07T13:06:14;9.80;;;8.13;;
45784;SDS011;31489;51.404;5.474;2023-12-07T13:08:41;9.70;;;8.13;;
45784;SDS011;31489;51.404;5.474;2023-12-07T13:11:14;10.32;;;8.27;;
45784;SDS011;31489;51.404;5.474;2023-12-07T13:13:40;11.57;;;8.38;;
45784;SDS011;31489;51.404;5.474;2023-12-07T13:16:06;9.52;;;7.90;;
45784;SDS011;31489;51.404;5.474;2023-12-07T13:18:32;11.75;;;9.32;;
45784;SDS011;31489;51.404;5.474;2023-12-07T13:20:57;9.43;;;8.38;;
45784;SDS011;31489;51.404;5.474;2023-12-07T13:23:24;11.40;;;9.23;;
45784;SDS011;31489;51.404;5.474;2023-12-07T13:25:50;11.23;;;8.80;;
45784;SDS011;31489;51.404;5.474;2023-12-07T13:28:16;10.55;;;8.48;;
45784;SDS011;31489;51.404;5.474;2023-12-07T13:30:41;12.48;;;9.05;;
45784;SDS011;31489;51.404;5.474;2023-12-07T13:33:07;11.05;;;8.85;;
45784;SDS011;31489;51.404;5.474;2023-12-07T13:35:34;15.80;;;8.82;;
45784;SDS011;31489;51.404;5.474;2023-12-07T13:38:00;10.65;;;8.93;;
45784;SDS011;31489;51.404;5.474;2023-12-07T13:40:25;12.75;;;9.93;;
45784;SDS011;31489;51.404;5.474;2023-12-07T13:42:52;12.60;;;8.90;;
45784;SDS011;31489;51.404;5.474;2023-12-07T13:45:17;12.13;;;8.73;;
45784;SDS011;31489;51.404;5.474;2023-12-07T13:47:43;11.23;;;8.55;;
45784;SDS011;31489;51.404;5.474;2023-12-07T13:50:09;12.25;;;9.00;;
45784;SDS011;31489;51.404;5.474;2023-12-07T13:52:36;12.70;;;9.10;;
45784;SDS011;31489;51.404;5.474;2023-12-07T13:55:03;12.07;;;8.15;;
45784;SDS011;31489;51.404;5.474;2023-12-07T13:57:29;11.77;;;9.40;;
45784;SDS011;31489;51.404;5.474;2023-12-07T13:59:55;12.07;;;9.10;;
45784;SDS011;31489;51.404;5.474;2023-12-07T14:02:21;13.52;;;9.35;;
45784;SDS011;31489;51.404;5.474;2023-12-07T14:04:48;13.27;;;9.27;;
45784;SDS011;31489;51.404;5.474;2023-12-07T14:07:18;10.48;;;8.50;;
45784;SDS011;31489;51.404;5.474;2023-12-07T14:09:46;11.80;;;9.07;;
45784;SDS011;31489;51.404;5.474;2023-12-07T14:12:14;12.20;;;10.05;;
45784;SDS011;31489;51.404;5.474;2023-12-07T14:14:41;13.98;;;10.45;;
45784;SDS011;31489;51.404;5.474;2023-12-07T14:17:09;11.10;;;9.90;;
45784;SDS011;31489;51.404;5.474;2023-12-07T14:19:35;15.88;;;10.50;;
45784;SDS011;31489;51.404;5.474;2023-12-07T14:22:01;13.65;;;10.60;;
45784;SDS011;31489;51.404;5.474;2023-12-07T14:24:27;12.63;;;10.43;;
45784;SDS011;31489;51.404;5.474;2023-12-07T14:26:55;14.73;;;11.02;;
45784;SDS011;31489;51.404;5.474;2023-12-07T14:29:21;13.90;;;10.95;;
45784;SDS011;31489;51.404;5.474;2023-12-07T14:31:47;13.07;;;11.27;;
45784;SDS011;31489;51.404;5.474;2023-12-07T14:34:13;14.63;;;11.35;;
45784;SDS011;31489;51.404;5.474;2023-12-07T14:36:40;13.65;;;11.15;;